sensor_id;sensor_type;location;lat;lon;timestamp;P1;durP1;ratioP1;P2;durP2;ratioP2
13933;SDS011;7039;52.168;9.866;2023-12-07T00:01:11;36.80;;;21.17;;
13933;SDS011;7039;52.168;9.866;2023-12-07T00:03:38;39.97;;;20.97;;
13933;SDS011;7039;52.168;9.866;2023-12-07T00:06:05;40.73;;;21.43;;
13933;SDS011;7039;52.168;9.866;2023-12-07T00:08:32;39.50;;;20.50;;
13933;SDS011;7039;52.168;9.866;2023-12-07T00:10:58;34.50;;;19.43;;
13933;SDS011;7039;52.168;9.866;2023-12-07T00:13:25;37.77;;;20.57;;
13933;SDS011;7039;52.168;9.866;2023-12-07T00:15:51;34.13;;;19.30;;
13933;SDS011;7039;52.168;9.866;2023-12-07T00:18:18;33.93;;;19.30;;
13933;SDS011;7039;52.168;9.866;2023-12-07T00:20:46;35.03;;;19.50;;
13933;SDS011;7039;52.168;9.866;2023-12-07T00:23:12;33.33;;;17.50;;
13933;SDS011;7039;52.168;9.866;2023-12-07T00:25:39;37.23;;;20.17;;
13933;SDS011;7039;52.168;9.866;2023-12-07T00:28:05;37.50;;;20.03;;
13933;SDS011;7039;52.168;9.866;2023-12-07T00:30:32;33.77;;;18.63;;
13933;SDS011;7039;52.168;9.866;2023-12-07T00:32:58;32.60;;;18.27;;
13933;SDS011;7039;52.168;9.866;2023-12-07T00:35:25;33.23;;;18.50;;
13933;SDS011;7039;52.168;9.866;2023-12-07T00:37:55;34.63;;;18.23;;
13933;SDS011;7039;52.168;9.866;2023-12-07T00:40:22;34.63;;;18.50;;
13933;SDS011;7039;52.168;9.866;2023-12-07T00:42:48;37.27;;;18.70;;
13933;SDS011;7039;52.168;9.866;2023-12-07T00:45:15;34.93;;;19.73;;
13933;SDS011;7039;52.168;9.866;2023-12-07T00:47:41;31.50;;;19.43;;
13933;SDS011;7039;52.168;9.866;2023-12-07T00:50:08;39.60;;;19.43;;
13933;SDS011;7039;52.168;9.866;2023-12-07T00:52:37;36.80;;;19.57;;
13933;SDS011;7039;52.168;9.866;2023-12-07T00:55:05;36.70;;;19.47;;
13933;SDS011;7039;52.168;9.866;2023-12-07T00:57:32;38.57;;;19.30;;
13933;SDS011;7039;52.168;9.866;2023-12-07T00:59:59;35.50;;;18.83;;
13933;SDS011;7039;52.168;9.866;2023-12-07T01:02:25;32.43;;;18.70;;
13933;SDS011;7039;52.168;9.866;2023-12-07T01:04:51;34.27;;;18.73;;
13933;SDS011;7039;52.168;9.866;2023-12-07T01:07:18;35.43;;;19.60;;
13933;SDS011;7039;52.168;9.866;2023-12-07T01:09:45;34.57;;;18.70;;
13933;SDS011;7039;52.168;9.866;2023-12-07T01:12:13;36.83;;;19.47;;
13933;SDS011;7039;52.168;9.866;2023-12-07T01:14:39;37.47;;;20.07;;
13933;SDS011;7039;52.168;9.866;2023-12-07T01:17:06;35.53;;;18.63;;
13933;SDS011;7039;52.168;9.866;2023-12-07T01:19:32;37.63;;;18.83;;
13933;SDS011;7039;52.168;9.866;2023-12-07T01:21:59;34.73;;;18.17;;
13933;SDS011;7039;52.168;9.866;2023-12-07T01:24:26;35.33;;;18.63;;
13933;SDS011;7039;52.168;9.866;2023-12-07T01:26:54;34.53;;;19.20;;
13933;SDS011;7039;52.168;9.866;2023-12-07T01:29:22;32.23;;;18.43;;
13933;SDS011;7039;52.168;9.866;2023-12-07T01:31:48;38.47;;;19.50;;
13933;SDS011;7039;52.168;9.866;2023-12-07T01:34:17;32.07;;;17.97;;
13933;SDS011;7039;52.168;9.866;2023-12-07T01:36:44;35.10;;;19.03;;
13933;SDS011;7039;52.168;9.866;2023-12-07T01:39:11;32.43;;;17.83;;
13933;SDS011;7039;52.168;9.866;2023-12-07T01:41:37;30.50;;;16.73;;
13933;SDS011;7039;52.168;9.866;2023-12-07T01:44:04;31.30;;;17.30;;
13933;SDS011;7039;52.168;9.866;2023-12-07T01:46:32;28.37;;;17.00;;
13933;SDS011;7039;52.168;9.866;2023-12-07T01:49:00;28.57;;;17.37;;
13933;SDS011;7039;52.168;9.866;2023-12-07T01:51:27;30.83;;;17.70;;
13933;SDS011;7039;52.168;9.866;2023-12-07T01:53:54;34.67;;;17.97;;
13933;SDS011;7039;52.168;9.866;2023-12-07T01:56:21;35.50;;;19.60;;
13933;SDS011;7039;52.168;9.866;2023-12-07T01:58:49;33.57;;;19.33;;
13933;SDS011;7039;52.168;9.866;2023-12-07T02:01:16;34.77;;;19.37;;
13933;SDS011;7039;52.168;9.866;2023-12-07T02:03:44;34.30;;;18.73;;
13933;SDS011;7039;52.168;9.866;2023-12-07T02:06:11;33.37;;;19.20;;
13933;SDS011;7039;52.168;9.866;2023-12-07T02:08:39;36.50;;;18.53;;
13933;SDS011;7039;52.168;9.866;2023-12-07T02:11:06;38.43;;;19.67;;
13933;SDS011;7039;52.168;9.866;2023-12-07T02:13:34;39.60;;;21.43;;
13933;SDS011;7039;52.168;9.866;2023-12-07T02:16:01;35.03;;;19.10;;
13933;SDS011;7039;52.168;9.866;2023-12-07T02:18:35;41.33;;;20.37;;
13933;SDS011;7039;52.168;9.866;2023-12-07T02:21:09;39.13;;;19.57;;
13933;SDS011;7039;52.168;9.866;2023-12-07T02:23:42;33.90;;;19.00;;
13933;SDS011;7039;52.168;9.866;2023-12-07T02:29:18;37.57;;;19.40;;
13933;SDS011;7039;52.168;9.866;2023-12-07T02:31:45;36.10;;;19.80;;
13933;SDS011;7039;52.168;9.866;2023-12-07T02:34:12;35.20;;;20.63;;
13933;SDS011;7039;52.168;9.866;2023-12-07T02:36:38;33.37;;;17.93;;
13933;SDS011;7039;52.168;9.866;2023-12-07T02:39:06;33.50;;;18.27;;
13933;SDS011;7039;52.168;9.866;2023-12-07T02:41:34;36.73;;;18.13;;
13933;SDS011;7039;52.168;9.866;2023-12-07T02:44:02;34.93;;;19.93;;
13933;SDS011;7039;52.168;9.866;2023-12-07T02:46:31;35.50;;;18.47;;
13933;SDS011;7039;52.168;9.866;2023-12-07T02:48:58;34.10;;;19.00;;
13933;SDS011;7039;52.168;9.866;2023-12-07T02:51:25;33.20;;;18.77;;
13933;SDS011;7039;52.168;9.866;2023-12-07T02:53:51;33.87;;;18.00;;
13933;SDS011;7039;52.168;9.866;2023-12-07T02:56:18;38.27;;;20.20;;
13933;SDS011;7039;52.168;9.866;2023-12-07T02:58:44;36.57;;;19.97;;
13933;SDS011;7039;52.168;9.866;2023-12-07T03:01:11;36.10;;;18.90;;
13933;SDS011;7039;52.168;9.866;2023-12-07T03:03:39;39.07;;;20.47;;
13933;SDS011;7039;52.168;9.866;2023-12-07T03:06:07;34.33;;;20.20;;
13933;SDS011;7039;52.168;9.866;2023-12-07T03:08:34;33.10;;;18.73;;
13933;SDS011;7039;52.168;9.866;2023-12-07T03:11:00;34.73;;;18.73;;
13933;SDS011;7039;52.168;9.866;2023-12-07T03:13:27;35.03;;;18.30;;
13933;SDS011;7039;52.168;9.866;2023-12-07T03:15:54;39.87;;;20.37;;
13933;SDS011;7039;52.168;9.866;2023-12-07T03:18:20;34.40;;;19.93;;
13933;SDS011;7039;52.168;9.866;2023-12-07T03:20:51;36.33;;;19.50;;
13933;SDS011;7039;52.168;9.866;2023-12-07T03:23:17;33.27;;;17.90;;
13933;SDS011;7039;52.168;9.866;2023-12-07T03:25:43;35.13;;;18.23;;
13933;SDS011;7039;52.168;9.866;2023-12-07T03:28:11;35.67;;;18.53;;
13933;SDS011;7039;52.168;9.866;2023-12-07T03:30:37;31.87;;;18.30;;
13933;SDS011;7039;52.168;9.866;2023-12-07T03:33:03;31.97;;;18.03;;
13933;SDS011;7039;52.168;9.866;2023-12-07T03:35:30;32.07;;;17.63;;
13933;SDS011;7039;52.168;9.866;2023-12-07T03:37:58;33.13;;;18.33;;
13933;SDS011;7039;52.168;9.866;2023-12-07T03:40:24;31.37;;;17.40;;
13933;SDS011;7039;52.168;9.866;2023-12-07T03:42:51;39.37;;;17.37;;
13933;SDS011;7039;52.168;9.866;2023-12-07T03:45:17;34.70;;;17.97;;
13933;SDS011;7039;52.168;9.866;2023-12-07T03:47:43;33.90;;;18.37;;
13933;SDS011;7039;52.168;9.866;2023-12-07T03:50:10;29.60;;;16.70;;
13933;SDS011;7039;52.168;9.866;2023-12-07T03:52:36;29.83;;;16.00;;
13933;SDS011;7039;52.168;9.866;2023-12-07T03:55:05;30.50;;;16.70;;
13933;SDS011;7039;52.168;9.866;2023-12-07T03:57:31;31.17;;;18.23;;
13933;SDS011;7039;52.168;9.866;2023-12-07T03:59:58;32.27;;;17.43;;
13933;SDS011;7039;52.168;9.866;2023-12-07T04:02:24;28.90;;;16.73;;
13933;SDS011;7039;52.168;9.866;2023-12-07T04:04:51;31.63;;;16.53;;
13933;SDS011;7039;52.168;9.866;2023-12-07T04:07:17;31.07;;;16.83;;
13933;SDS011;7039;52.168;9.866;2023-12-07T04:09:44;35.30;;;16.53;;
13933;SDS011;7039;52.168;9.866;2023-12-07T04:12:12;29.23;;;16.00;;
13933;SDS011;7039;52.168;9.866;2023-12-07T04:14:39;30.53;;;17.97;;
13933;SDS011;7039;52.168;9.866;2023-12-07T04:17:05;25.87;;;15.77;;
13933;SDS011;7039;52.168;9.866;2023-12-07T04:19:32;28.17;;;16.30;;
13933;SDS011;7039;52.168;9.866;2023-12-07T04:21:58;31.33;;;17.80;;
13933;SDS011;7039;52.168;9.866;2023-12-07T04:24:25;32.87;;;16.87;;
13933;SDS011;7039;52.168;9.866;2023-12-07T04:26:51;30.87;;;18.07;;
13933;SDS011;7039;52.168;9.866;2023-12-07T04:29:19;34.40;;;18.57;;
13933;SDS011;7039;52.168;9.866;2023-12-07T04:31:45;34.13;;;17.20;;
13933;SDS011;7039;52.168;9.866;2023-12-07T04:34:12;31.87;;;18.13;;
13933;SDS011;7039;52.168;9.866;2023-12-07T04:36:38;36.73;;;17.67;;
13933;SDS011;7039;52.168;9.866;2023-12-07T04:39:05;31.50;;;17.50;;
13933;SDS011;7039;52.168;9.866;2023-12-07T04:41:31;29.97;;;17.47;;
13933;SDS011;7039;52.168;9.866;2023-12-07T04:43:58;33.50;;;18.13;;
13933;SDS011;7039;52.168;9.866;2023-12-07T04:46:25;31.73;;;17.47;;
13933;SDS011;7039;52.168;9.866;2023-12-07T04:48:53;29.57;;;17.03;;
13933;SDS011;7039;52.168;9.866;2023-12-07T04:51:20;31.87;;;16.77;;
13933;SDS011;7039;52.168;9.866;2023-12-07T04:53:46;29.13;;;16.03;;
13933;SDS011;7039;52.168;9.866;2023-12-07T04:56:13;29.27;;;17.17;;
13933;SDS011;7039;52.168;9.866;2023-12-07T04:58:39;35.73;;;18.33;;
13933;SDS011;7039;52.168;9.866;2023-12-07T05:01:06;30.93;;;16.80;;
13933;SDS011;7039;52.168;9.866;2023-12-07T05:03:34;28.50;;;15.10;;
13933;SDS011;7039;52.168;9.866;2023-12-07T05:06:00;29.57;;;15.83;;
13933;SDS011;7039;52.168;9.866;2023-12-07T05:08:27;26.90;;;15.13;;
13933;SDS011;7039;52.168;9.866;2023-12-07T05:10:53;28.47;;;15.77;;
13933;SDS011;7039;52.168;9.866;2023-12-07T05:13:20;31.43;;;16.10;;
13933;SDS011;7039;52.168;9.866;2023-12-07T05:15:46;27.73;;;16.00;;
13933;SDS011;7039;52.168;9.866;2023-12-07T05:18:12;25.07;;;14.50;;
13933;SDS011;7039;52.168;9.866;2023-12-07T05:20:40;29.13;;;15.40;;
13933;SDS011;7039;52.168;9.866;2023-12-07T05:23:08;29.10;;;14.70;;
13933;SDS011;7039;52.168;9.866;2023-12-07T05:25:34;26.90;;;14.97;;
13933;SDS011;7039;52.168;9.866;2023-12-07T05:28:01;25.87;;;14.67;;
13933;SDS011;7039;52.168;9.866;2023-12-07T05:30:28;27.00;;;14.97;;
13933;SDS011;7039;52.168;9.866;2023-12-07T05:32:54;30.43;;;15.93;;
13933;SDS011;7039;52.168;9.866;2023-12-07T05:35:21;26.53;;;15.03;;
13933;SDS011;7039;52.168;9.866;2023-12-07T05:37:49;28.87;;;15.30;;
13933;SDS011;7039;52.168;9.866;2023-12-07T05:40:16;29.90;;;14.27;;
13933;SDS011;7039;52.168;9.866;2023-12-07T05:42:43;28.37;;;15.43;;
13933;SDS011;7039;52.168;9.866;2023-12-07T05:45:10;29.27;;;15.73;;
13933;SDS011;7039;52.168;9.866;2023-12-07T05:47:36;29.10;;;15.17;;
13933;SDS011;7039;52.168;9.866;2023-12-07T05:50:03;30.33;;;15.47;;
13933;SDS011;7039;52.168;9.866;2023-12-07T05:52:30;28.63;;;15.37;;
13933;SDS011;7039;52.168;9.866;2023-12-07T05:54:57;29.73;;;15.23;;
13933;SDS011;7039;52.168;9.866;2023-12-07T05:57:24;28.43;;;16.17;;
13933;SDS011;7039;52.168;9.866;2023-12-07T05:59:50;32.90;;;14.83;;
13933;SDS011;7039;52.168;9.866;2023-12-07T06:02:17;32.27;;;17.10;;
13933;SDS011;7039;52.168;9.866;2023-12-07T06:04:43;29.80;;;15.07;;
13933;SDS011;7039;52.168;9.866;2023-12-07T06:07:10;28.03;;;15.50;;
13933;SDS011;7039;52.168;9.866;2023-12-07T06:09:37;25.07;;;14.47;;
13933;SDS011;7039;52.168;9.866;2023-12-07T06:12:05;26.30;;;16.23;;
13933;SDS011;7039;52.168;9.866;2023-12-07T06:14:31;32.13;;;16.30;;
13933;SDS011;7039;52.168;9.866;2023-12-07T06:16:58;28.67;;;16.20;;
13933;SDS011;7039;52.168;9.866;2023-12-07T06:19:25;28.57;;;15.60;;
13933;SDS011;7039;52.168;9.866;2023-12-07T06:21:51;29.03;;;15.33;;
13933;SDS011;7039;52.168;9.866;2023-12-07T06:24:18;27.93;;;14.87;;
13933;SDS011;7039;52.168;9.866;2023-12-07T06:26:48;29.27;;;16.00;;
13933;SDS011;7039;52.168;9.866;2023-12-07T06:29:15;28.63;;;15.27;;
13933;SDS011;7039;52.168;9.866;2023-12-07T06:31:42;30.37;;;16.10;;
13933;SDS011;7039;52.168;9.866;2023-12-07T06:34:09;29.70;;;14.93;;
13933;SDS011;7039;52.168;9.866;2023-12-07T06:36:36;26.73;;;15.80;;
13933;SDS011;7039;52.168;9.866;2023-12-07T06:39:02;25.87;;;14.33;;
13933;SDS011;7039;52.168;9.866;2023-12-07T06:41:29;26.73;;;16.07;;
13933;SDS011;7039;52.168;9.866;2023-12-07T06:43:55;27.50;;;15.93;;
13933;SDS011;7039;52.168;9.866;2023-12-07T06:46:23;32.47;;;15.93;;
13933;SDS011;7039;52.168;9.866;2023-12-07T06:48:50;27.57;;;15.47;;
13933;SDS011;7039;52.168;9.866;2023-12-07T06:51:16;32.40;;;16.13;;
13933;SDS011;7039;52.168;9.866;2023-12-07T06:53:42;28.80;;;15.90;;
13933;SDS011;7039;52.168;9.866;2023-12-07T06:56:09;29.93;;;15.77;;
13933;SDS011;7039;52.168;9.866;2023-12-07T06:58:35;29.17;;;15.57;;
13933;SDS011;7039;52.168;9.866;2023-12-07T07:01:02;32.60;;;17.13;;
13933;SDS011;7039;52.168;9.866;2023-12-07T07:03:30;33.10;;;17.20;;
13933;SDS011;7039;52.168;9.866;2023-12-07T07:05:56;33.03;;;17.37;;
13933;SDS011;7039;52.168;9.866;2023-12-07T07:08:24;32.93;;;16.37;;
13933;SDS011;7039;52.168;9.866;2023-12-07T07:10:50;30.10;;;17.10;;
13933;SDS011;7039;52.168;9.866;2023-12-07T07:13:17;31.20;;;17.13;;
13933;SDS011;7039;52.168;9.866;2023-12-07T07:15:45;30.23;;;17.07;;
13933;SDS011;7039;52.168;9.866;2023-12-07T07:18:12;31.90;;;16.23;;
13933;SDS011;7039;52.168;9.866;2023-12-07T07:20:40;35.13;;;16.97;;
13933;SDS011;7039;52.168;9.866;2023-12-07T07:23:07;30.60;;;16.73;;
13933;SDS011;7039;52.168;9.866;2023-12-07T07:25:34;34.33;;;18.10;;
13933;SDS011;7039;52.168;9.866;2023-12-07T07:28:00;40.80;;;17.97;;
13933;SDS011;7039;52.168;9.866;2023-12-07T07:30:27;34.10;;;16.60;;
13933;SDS011;7039;52.168;9.866;2023-12-07T07:32:53;32.33;;;17.83;;
13933;SDS011;7039;52.168;9.866;2023-12-07T07:35:20;36.53;;;17.07;;
13933;SDS011;7039;52.168;9.866;2023-12-07T07:37:48;32.63;;;16.73;;
13933;SDS011;7039;52.168;9.866;2023-12-07T07:40:14;36.93;;;18.10;;
13933;SDS011;7039;52.168;9.866;2023-12-07T07:42:41;31.20;;;16.67;;
13933;SDS011;7039;52.168;9.866;2023-12-07T07:45:07;35.03;;;16.87;;
13933;SDS011;7039;52.168;9.866;2023-12-07T07:47:34;33.90;;;16.83;;
13933;SDS011;7039;52.168;9.866;2023-12-07T07:50:01;31.93;;;17.53;;
13933;SDS011;7039;52.168;9.866;2023-12-07T07:52:36;30.53;;;18.00;;
13933;SDS011;7039;52.168;9.866;2023-12-07T07:55:45;33.33;;;16.70;;
13933;SDS011;7039;52.168;9.866;2023-12-07T07:58:12;33.83;;;17.00;;
13933;SDS011;7039;52.168;9.866;2023-12-07T08:00:39;33.33;;;15.13;;
13933;SDS011;7039;52.168;9.866;2023-12-07T08:03:05;29.07;;;16.57;;
13933;SDS011;7039;52.168;9.866;2023-12-07T08:05:32;30.77;;;16.37;;
13933;SDS011;7039;52.168;9.866;2023-12-07T08:07:58;31.23;;;16.30;;
13933;SDS011;7039;52.168;9.866;2023-12-07T08:10:27;31.07;;;15.53;;
13933;SDS011;7039;52.168;9.866;2023-12-07T08:15:28;28.23;;;15.50;;
13933;SDS011;7039;52.168;9.866;2023-12-07T08:17:55;27.60;;;14.87;;
13933;SDS011;7039;52.168;9.866;2023-12-07T08:20:24;25.57;;;14.30;;
13933;SDS011;7039;52.168;9.866;2023-12-07T08:22:57;26.50;;;15.00;;
13933;SDS011;7039;52.168;9.866;2023-12-07T08:25:24;28.00;;;14.63;;
13933;SDS011;7039;52.168;9.866;2023-12-07T08:27:53;27.07;;;15.83;;
13933;SDS011;7039;52.168;9.866;2023-12-07T08:30:20;27.97;;;15.20;;
13933;SDS011;7039;52.168;9.866;2023-12-07T08:32:46;27.13;;;14.90;;
13933;SDS011;7039;52.168;9.866;2023-12-07T08:35:43;29.50;;;15.43;;
13933;SDS011;7039;52.168;9.866;2023-12-07T08:38:18;32.10;;;14.87;;
13933;SDS011;7039;52.168;9.866;2023-12-07T08:40:46;28.83;;;14.13;;
13933;SDS011;7039;52.168;9.866;2023-12-07T08:43:16;27.00;;;14.43;;
13933;SDS011;7039;52.168;9.866;2023-12-07T08:45:59;26.20;;;14.77;;
13933;SDS011;7039;52.168;9.866;2023-12-07T08:48:26;26.77;;;14.63;;
13933;SDS011;7039;52.168;9.866;2023-12-07T08:50:52;29.47;;;14.90;;
13933;SDS011;7039;52.168;9.866;2023-12-07T08:53:19;26.30;;;14.73;;
13933;SDS011;7039;52.168;9.866;2023-12-07T08:55:47;25.57;;;13.83;;
13933;SDS011;7039;52.168;9.866;2023-12-07T08:58:17;25.03;;;14.43;;
13933;SDS011;7039;52.168;9.866;2023-12-07T09:00:46;24.73;;;13.80;;
13933;SDS011;7039;52.168;9.866;2023-12-07T09:03:14;24.77;;;14.07;;
13933;SDS011;7039;52.168;9.866;2023-12-07T09:05:41;24.70;;;14.13;;
13933;SDS011;7039;52.168;9.866;2023-12-07T09:08:25;27.40;;;13.93;;
13933;SDS011;7039;52.168;9.866;2023-12-07T09:10:58;27.13;;;13.60;;
13933;SDS011;7039;52.168;9.866;2023-12-07T09:13:27;25.17;;;14.43;;
13933;SDS011;7039;52.168;9.866;2023-12-07T09:15:56;23.27;;;13.23;;
13933;SDS011;7039;52.168;9.866;2023-12-07T09:18:51;26.37;;;13.27;;
13933;SDS011;7039;52.168;9.866;2023-12-07T09:21:17;23.90;;;12.77;;
13933;SDS011;7039;52.168;9.866;2023-12-07T09:23:44;26.17;;;13.33;;
13933;SDS011;7039;52.168;9.866;2023-12-07T09:26:15;28.03;;;15.00;;
13933;SDS011;7039;52.168;9.866;2023-12-07T09:28:42;23.80;;;13.83;;
13933;SDS011;7039;52.168;9.866;2023-12-07T09:31:08;25.73;;;13.73;;
13933;SDS011;7039;52.168;9.866;2023-12-07T09:33:34;22.77;;;13.33;;
13933;SDS011;7039;52.168;9.866;2023-12-07T09:36:01;24.40;;;13.83;;
13933;SDS011;7039;52.168;9.866;2023-12-07T09:38:28;22.03;;;12.57;;
13933;SDS011;7039;52.168;9.866;2023-12-07T09:40:55;22.03;;;12.33;;
13933;SDS011;7039;52.168;9.866;2023-12-07T09:43:22;22.63;;;12.83;;
13933;SDS011;7039;52.168;9.866;2023-12-07T09:45:49;22.93;;;12.13;;
13933;SDS011;7039;52.168;9.866;2023-12-07T09:48:20;19.23;;;11.57;;
13933;SDS011;7039;52.168;9.866;2023-12-07T09:50:47;21.27;;;12.87;;
13933;SDS011;7039;52.168;9.866;2023-12-07T09:53:14;22.20;;;12.50;;
13933;SDS011;7039;52.168;9.866;2023-12-07T09:55:41;24.67;;;13.67;;
13933;SDS011;7039;52.168;9.866;2023-12-07T09:58:07;22.97;;;13.30;;
13933;SDS011;7039;52.168;9.866;2023-12-07T10:00:36;27.43;;;14.20;;
13933;SDS011;7039;52.168;9.866;2023-12-07T10:03:03;26.20;;;14.17;;
13933;SDS011;7039;52.168;9.866;2023-12-07T10:05:32;25.77;;;13.50;;
13933;SDS011;7039;52.168;9.866;2023-12-07T10:07:59;25.60;;;13.20;;
13933;SDS011;7039;52.168;9.866;2023-12-07T10:10:26;27.90;;;13.90;;
13933;SDS011;7039;52.168;9.866;2023-12-07T10:12:53;26.33;;;13.43;;
13933;SDS011;7039;52.168;9.866;2023-12-07T10:15:21;25.57;;;13.83;;
13933;SDS011;7039;52.168;9.866;2023-12-07T10:17:51;22.87;;;12.80;;
13933;SDS011;7039;52.168;9.866;2023-12-07T10:20:20;27.83;;;13.90;;
13933;SDS011;7039;52.168;9.866;2023-12-07T10:22:50;22.13;;;13.73;;
13933;SDS011;7039;52.168;9.866;2023-12-07T10:25:29;25.53;;;14.27;;
13933;SDS011;7039;52.168;9.866;2023-12-07T10:27:55;26.23;;;13.20;;
13933;SDS011;7039;52.168;9.866;2023-12-07T10:30:22;24.17;;;13.70;;
13933;SDS011;7039;52.168;9.866;2023-12-07T10:32:52;24.27;;;13.43;;
13933;SDS011;7039;52.168;9.866;2023-12-07T10:35:18;23.23;;;13.20;;
13933;SDS011;7039;52.168;9.866;2023-12-07T10:37:50;24.70;;;13.33;;
13933;SDS011;7039;52.168;9.866;2023-12-07T10:40:20;24.93;;;13.77;;
13933;SDS011;7039;52.168;9.866;2023-12-07T10:42:54;25.60;;;14.00;;
13933;SDS011;7039;52.168;9.866;2023-12-07T10:45:36;25.00;;;13.30;;
13933;SDS011;7039;52.168;9.866;2023-12-07T10:48:13;24.70;;;13.37;;
13933;SDS011;7039;52.168;9.866;2023-12-07T10:50:45;24.50;;;14.47;;
13933;SDS011;7039;52.168;9.866;2023-12-07T10:53:26;24.73;;;13.53;;
13933;SDS011;7039;52.168;9.866;2023-12-07T10:55:59;26.07;;;14.27;;
13933;SDS011;7039;52.168;9.866;2023-12-07T10:58:43;27.90;;;14.30;;
13933;SDS011;7039;52.168;9.866;2023-12-07T11:01:14;27.23;;;15.20;;
13933;SDS011;7039;52.168;9.866;2023-12-07T11:03:48;26.03;;;13.73;;
13933;SDS011;7039;52.168;9.866;2023-12-07T11:06:33;26.27;;;12.70;;
13933;SDS011;7039;52.168;9.866;2023-12-07T11:09:04;23.93;;;12.87;;
13933;SDS011;7039;52.168;9.866;2023-12-07T11:11:38;29.43;;;15.40;;
13933;SDS011;7039;52.168;9.866;2023-12-07T11:14:11;25.93;;;13.80;;
13933;SDS011;7039;52.168;9.866;2023-12-07T11:16:42;24.43;;;13.90;;
13933;SDS011;7039;52.168;9.866;2023-12-07T11:22:28;29.17;;;13.40;;
13933;SDS011;7039;52.168;9.866;2023-12-07T11:24:57;27.67;;;14.43;;
13933;SDS011;7039;52.168;9.866;2023-12-07T11:27:29;28.00;;;14.23;;
13933;SDS011;7039;52.168;9.866;2023-12-07T11:29:58;27.17;;;14.90;;
13933;SDS011;7039;52.168;9.866;2023-12-07T11:32:26;23.90;;;13.63;;
13933;SDS011;7039;52.168;9.866;2023-12-07T11:34:53;28.23;;;13.90;;
13933;SDS011;7039;52.168;9.866;2023-12-07T11:37:21;25.20;;;12.87;;
13933;SDS011;7039;52.168;9.866;2023-12-07T11:39:47;26.57;;;13.80;;
13933;SDS011;7039;52.168;9.866;2023-12-07T11:42:16;24.93;;;14.13;;
13933;SDS011;7039;52.168;9.866;2023-12-07T11:44:45;26.00;;;14.53;;
13933;SDS011;7039;52.168;9.866;2023-12-07T11:47:15;27.17;;;14.57;;
13933;SDS011;7039;52.168;9.866;2023-12-07T11:49:43;25.17;;;13.37;;
13933;SDS011;7039;52.168;9.866;2023-12-07T11:52:13;23.90;;;12.93;;
13933;SDS011;7039;52.168;9.866;2023-12-07T11:54:44;25.63;;;13.13;;
13933;SDS011;7039;52.168;9.866;2023-12-07T11:57:11;21.00;;;11.80;;
13933;SDS011;7039;52.168;9.866;2023-12-07T11:59:38;30.57;;;12.57;;
13933;SDS011;7039;52.168;9.866;2023-12-07T12:02:05;24.93;;;13.13;;
13933;SDS011;7039;52.168;9.866;2023-12-07T12:04:32;27.23;;;15.07;;
13933;SDS011;7039;52.168;9.866;2023-12-07T12:06:58;42.03;;;19.87;;
13933;SDS011;7039;52.168;9.866;2023-12-07T12:09:25;36.17;;;20.07;;
13933;SDS011;7039;52.168;9.866;2023-12-07T12:11:53;27.87;;;14.90;;
13933;SDS011;7039;52.168;9.866;2023-12-07T12:14:20;25.60;;;14.20;;
13933;SDS011;7039;52.168;9.866;2023-12-07T12:16:47;25.93;;;13.47;;
13933;SDS011;7039;52.168;9.866;2023-12-07T12:19:13;24.40;;;13.33;;
13933;SDS011;7039;52.168;9.866;2023-12-07T12:21:41;24.80;;;13.00;;
13933;SDS011;7039;52.168;9.866;2023-12-07T12:24:08;22.93;;;13.17;;
13933;SDS011;7039;52.168;9.866;2023-12-07T12:26:35;20.90;;;11.90;;
13933;SDS011;7039;52.168;9.866;2023-12-07T12:29:05;24.47;;;12.97;;
13933;SDS011;7039;52.168;9.866;2023-12-07T12:31:33;24.53;;;13.57;;
13933;SDS011;7039;52.168;9.866;2023-12-07T12:34:00;28.47;;;13.07;;
13933;SDS011;7039;52.168;9.866;2023-12-07T12:36:27;22.20;;;12.83;;
13933;SDS011;7039;52.168;9.866;2023-12-07T12:38:55;25.37;;;12.33;;
13933;SDS011;7039;52.168;9.866;2023-12-07T12:41:22;22.50;;;12.40;;
13933;SDS011;7039;52.168;9.866;2023-12-07T12:43:49;27.97;;;13.67;;
13933;SDS011;7039;52.168;9.866;2023-12-07T12:46:19;27.10;;;13.83;;
13933;SDS011;7039;52.168;9.866;2023-12-07T12:48:56;23.80;;;11.47;;
13933;SDS011;7039;52.168;9.866;2023-12-07T12:51:24;25.77;;;12.33;;
13933;SDS011;7039;52.168;9.866;2023-12-07T12:53:52;21.07;;;11.70;;
13933;SDS011;7039;52.168;9.866;2023-12-07T12:56:20;22.87;;;12.07;;
13933;SDS011;7039;52.168;9.866;2023-12-07T12:58:47;25.80;;;12.70;;
13933;SDS011;7039;52.168;9.866;2023-12-07T13:01:14;21.00;;;12.23;;
13933;SDS011;7039;52.168;9.866;2023-12-07T13:03:44;22.70;;;12.30;;
13933;SDS011;7039;52.168;9.866;2023-12-07T13:06:11;24.53;;;12.10;;
13933;SDS011;7039;52.168;9.866;2023-12-07T13:08:39;24.30;;;12.40;;
13933;SDS011;7039;52.168;9.866;2023-12-07T13:11:06;21.23;;;11.43;;
13933;SDS011;7039;52.168;9.866;2023-12-07T13:13:32;24.13;;;12.73;;
13933;SDS011;7039;52.168;9.866;2023-12-07T13:15:58;26.07;;;12.47;;
13933;SDS011;7039;52.168;9.866;2023-12-07T13:18:25;19.50;;;10.90;;
13933;SDS011;7039;52.168;9.866;2023-12-07T13:20:53;16.73;;;9.03;;
13933;SDS011;7039;52.168;9.866;2023-12-07T13:23:19;20.43;;;11.40;;
13933;SDS011;7039;52.168;9.866;2023-12-07T13:25:46;25.57;;;11.23;;
13933;SDS011;7039;52.168;9.866;2023-12-07T13:28:13;18.80;;;10.93;;
13933;SDS011;7039;52.168;9.866;2023-12-07T13:30:40;21.23;;;10.30;;
13933;SDS011;7039;52.168;9.866;2023-12-07T13:33:06;19.53;;;10.03;;
13933;SDS011;7039;52.168;9.866;2023-12-07T13:35:35;18.93;;;10.10;;
13933;SDS011;7039;52.168;9.866;2023-12-07T13:38:03;22.07;;;10.53;;
13933;SDS011;7039;52.168;9.866;2023-12-07T13:40:29;22.00;;;9.77;;
13933;SDS011;7039;52.168;9.866;2023-12-07T13:42:56;16.80;;;8.57;;
13933;SDS011;7039;52.168;9.866;2023-12-07T13:45:22;15.00;;;9.10;;
13933;SDS011;7039;52.168;9.866;2023-12-07T13:47:49;14.07;;;8.13;;
13933;SDS011;7039;52.168;9.866;2023-12-07T13:50:15;14.97;;;8.83;;
13933;SDS011;7039;52.168;9.866;2023-12-07T13:52:42;15.27;;;8.27;;
13933;SDS011;7039;52.168;9.866;2023-12-07T13:57:54;13.73;;;7.00;;
13933;SDS011;7039;52.168;9.866;2023-12-07T14:00:22;15.60;;;6.60;;
13933;SDS011;7039;52.168;9.866;2023-12-07T14:02:49;12.10;;;5.83;;
13933;SDS011;7039;52.168;9.866;2023-12-07T14:05:15;8.07;;;5.50;;
13933;SDS011;7039;52.168;9.866;2023-12-07T14:07:43;7.07;;;4.87;;
13933;SDS011;7039;52.168;9.866;2023-12-07T14:10:10;8.47;;;5.10;;
13933;SDS011;7039;52.168;9.866;2023-12-07T14:12:38;6.53;;;4.03;;
13933;SDS011;7039;52.168;9.866;2023-12-07T14:15:05;6.07;;;3.80;;
13933;SDS011;7039;52.168;9.866;2023-12-07T14:17:33;7.70;;;3.73;;
13933;SDS011;7039;52.168;9.866;2023-12-07T14:20:02;7.43;;;3.40;;
13933;SDS011;7039;52.168;9.866;2023-12-07T14:22:30;8.17;;;3.90;;
13933;SDS011;7039;52.168;9.866;2023-12-07T14:24:56;13.10;;;4.03;;
13933;SDS011;7039;52.168;9.866;2023-12-07T14:27:23;6.37;;;4.10;;
13933;SDS011;7039;52.168;9.866;2023-12-07T14:30:00;7.17;;;5.10;;
13933;SDS011;7039;52.168;9.866;2023-12-07T14:32:35;14.50;;;9.40;;
13933;SDS011;7039;52.168;9.866;2023-12-07T14:35:03;14.13;;;6.73;;
13933;SDS011;7039;52.168;9.866;2023-12-07T14:37:31;11.20;;;6.57;;
13933;SDS011;7039;52.168;9.866;2023-12-07T14:40:00;13.30;;;8.03;;
13933;SDS011;7039;52.168;9.866;2023-12-07T14:42:30;14.27;;;6.87;;
13933;SDS011;7039;52.168;9.866;2023-12-07T14:44:57;12.67;;;6.50;;
13933;SDS011;7039;52.168;9.866;2023-12-07T14:47:25;13.43;;;8.40;;
13933;SDS011;7039;52.168;9.866;2023-12-07T14:49:52;24.87;;;13.53;;
13933;SDS011;7039;52.168;9.866;2023-12-07T14:52:19;15.37;;;8.23;;